createdAt,value
2019-02-19T00:00:13.696Z,97960.43
2019-02-19T00:02:45.603Z,97964.55
2019-02-19T00:05:17.543Z,97964.89
2019-02-19T00:07:49.467Z,97959.88
2019-02-19T00:10:21.386Z,97966.32
2019-02-19T00:12:54.182Z,97969.75
2019-02-19T00:15:26.104Z,97961.34
2019-02-19T00:17:58.009Z,97966.70
2019-02-19T00:20:29.932Z,97962.47
2019-02-19T00:23:01.853Z,97969.97
2019-02-19T00:25:33.772Z,97966.94
2019-02-19T00:28:05.684Z,97964.70
2019-02-19T00:30:37.622Z,97965.91
2019-02-19T00:33:09.538Z,97967.43
2019-02-19T00:35:41.459Z,97967.08
2019-02-19T00:38:13.367Z,97969.80
2019-02-19T00:40:45.326Z,97967.22
2019-02-19T00:43:17.245Z,97963.23
2019-02-19T00:45:49.173Z,97966.74
2019-02-19T00:48:21.074Z,97972.27
2019-02-19T00:50:52.994Z,97975.59
2019-02-19T00:53:24.903Z,97977.11
2019-02-19T00:55:56.807Z,97984.14
2019-02-19T00:58:28.718Z,97987.08
2019-02-19T01:01:00.663Z,97987.81
2019-02-19T01:03:32.566Z,97985.52
2019-02-19T01:06:04.501Z,97991.64
2019-02-19T01:08:36.420Z,97993.08
2019-02-19T01:11:08.584Z,97991.36
2019-02-19T01:13:40.505Z,97994.37
2019-02-19T01:16:12.439Z,97996.06
2019-02-19T01:18:44.344Z,97996.09
2019-02-19T01:21:16.264Z,97997.64
2019-02-19T01:23:48.176Z,97989.59
2019-02-19T01:26:20.119Z,97990.65
2019-02-19T01:28:52.031Z,97996.94
2019-02-19T01:31:23.994Z,97993.94
2019-02-19T01:33:55.857Z,97990.60
2019-02-19T01:36:27.773Z,97990.80
2019-02-19T01:38:59.674Z,97991.72
2019-02-19T01:41:31.702Z,97994.66
2019-02-19T01:44:03.619Z,97991.02
2019-02-19T01:46:35.529Z,97987.38
2019-02-19T01:49:07.399Z,97983.50
2019-02-19T01:51:39.320Z,97986.75
2019-02-19T01:54:11.194Z,97982.88
2019-02-19T01:56:43.108Z,97981.89
2019-02-19T01:59:15.063Z,97975.17
2019-02-19T02:01:50.290Z,97974.70
2019-02-19T02:04:22.211Z,97969.35
2019-02-19T02:06:54.124Z,97970.16
2019-02-19T02:09:26.031Z,97972.87
2019-02-19T02:11:57.960Z,97971.27
2019-02-19T02:14:29.874Z,97974.88
2019-02-19T02:17:01.895Z,97968.11
2019-02-19T02:19:33.803Z,97962.67
2019-02-19T02:22:05.838Z,97969.67
2019-02-19T02:24:37.828Z,97965.78
2019-02-19T02:27:09.716Z,97962.48
2019-02-19T02:29:41.755Z,97961.62
2019-02-19T02:32:13.761Z,97963.11
2019-02-19T02:34:45.641Z,97959.85
2019-02-19T02:37:17.570Z,97965.56
2019-02-19T02:39:49.484Z,97957.84
2019-02-19T02:42:21.537Z,97958.80
2019-02-19T02:44:53.413Z,97963.69
2019-02-19T02:47:25.460Z,97960.67
2019-02-19T02:49:57.342Z,97966.97
2019-02-19T02:52:30.766Z,97962.33
2019-02-19T02:55:02.756Z,97964.56
2019-02-19T02:57:34.753Z,97960.73
2019-02-19T03:00:08.388Z,97963.16
2019-02-19T03:02:40.875Z,97959.04
2019-02-19T03:05:12.942Z,97957.53
2019-02-19T03:07:48.780Z,97957.05
2019-02-19T03:10:20.770Z,97960.22
2019-02-19T03:12:52.771Z,97955.52
2019-02-19T03:15:24.761Z,97957.87
2019-02-19T03:17:56.772Z,97953.16
2019-02-19T03:20:28.768Z,97952.01
2019-02-19T03:23:00.775Z,97952.50
2019-02-19T03:25:32.826Z,97956.00
2019-02-19T03:28:04.735Z,97964.00
2019-02-19T03:30:36.765Z,97961.78
2019-02-19T03:33:08.841Z,97963.52
2019-02-19T03:35:40.998Z,97962.45
2019-02-19T03:38:13.093Z,97963.47
2019-02-19T03:40:45.091Z,97967.26
2019-02-19T03:43:17.114Z,97970.30
2019-02-19T03:45:49.187Z,97973.98
2019-02-19T03:48:21.271Z,97973.09
2019-02-19T03:50:53.157Z,97981.62
2019-02-19T03:53:25.078Z,97982.07
2019-02-19T03:55:57.009Z,97983.63
2019-02-19T03:58:29.134Z,97978.47
2019-02-19T04:01:01.401Z,97982.88
2019-02-19T04:03:33.295Z,97994.86
2019-02-19T04:06:05.208Z,97988.94
2019-02-19T04:08:37.245Z,97987.38
2019-02-19T04:11:09.236Z,97984.08
2019-02-19T04:13:41.375Z,97989.34
2019-02-19T04:16:20.998Z,97990.29
2019-02-19T04:18:46.934Z,97994.38
2019-02-19T04:21:18.863Z,97997.70
2019-02-19T04:23:50.904Z,97995.45
2019-02-19T04:26:22.788Z,97994.79
2019-02-19T04:28:54.830Z,97997.89
2019-02-19T04:31:26.770Z,97999.08
2019-02-19T04:33:58.697Z,98004.67
2019-02-19T04:36:30.623Z,98003.82
2019-02-19T04:39:02.542Z,98004.20
2019-02-19T04:41:34.582Z,97999.70
2019-02-19T04:44:06.545Z,97995.10
2019-02-19T04:46:38.476Z,97994.84
2019-02-19T04:49:10.504Z,97993.41
2019-02-19T04:51:42.515Z,97998.34
2019-02-19T04:54:14.591Z,97997.42
2019-02-19T04:56:46.597Z,97992.55
2019-02-19T04:59:18.586Z,97997.44
2019-02-19T05:01:50.716Z,97997.99
2019-02-19T05:04:22.722Z,98003.32
2019-02-19T05:06:54.718Z,98012.30
2019-02-19T05:09:26.794Z,98008.73
2019-02-19T05:11:58.814Z,98010.15
2019-02-19T05:14:30.881Z,98008.52
2019-02-19T05:17:02.881Z,98011.33
2019-02-19T05:19:34.895Z,98016.09
2019-02-19T05:22:06.966Z,98016.48
2019-02-19T05:24:39.070Z,98010.95
2019-02-19T05:27:11.135Z,98010.45
2019-02-19T05:29:43.139Z,98013.56
2019-02-19T05:32:15.016Z,98009.61
2019-02-19T05:34:46.948Z,98008.11
2019-02-19T05:37:18.869Z,98013.63
2019-02-19T05:39:50.904Z,98013.80
2019-02-19T05:42:22.865Z,98010.78
2019-02-19T05:44:54.796Z,98006.95
2019-02-19T05:47:26.883Z,98015.06
2019-02-19T05:49:58.891Z,98019.11
2019-02-19T05:52:32.067Z,98018.72
2019-02-19T05:55:04.118Z,98020.29
2019-02-19T05:57:36.190Z,98028.84
2019-02-19T06:00:09.320Z,98028.15
2019-02-19T06:02:41.308Z,98033.60
2019-02-19T06:05:12.637Z,98031.53
2019-02-19T06:07:44.638Z,98026.91
2019-02-19T06:10:16.719Z,98033.87
2019-02-19T06:12:48.713Z,98039.52
2019-02-19T06:15:20.749Z,98044.22
2019-02-19T06:17:52.762Z,98044.02
2019-02-19T06:20:24.785Z,98048.55
2019-02-19T06:22:56.789Z,98051.34
2019-02-19T06:25:28.825Z,98061.14
2019-02-19T06:28:00.909Z,98053.44
2019-02-19T06:30:32.984Z,98051.61
2019-02-19T06:33:05.051Z,98053.65
2019-02-19T06:35:36.941Z,98059.78
2019-02-19T06:38:08.977Z,98065.27
2019-02-19T06:40:41.067Z,98068.13
2019-02-19T06:43:13.069Z,98065.06
2019-02-19T06:45:45.139Z,98068.09
2019-02-19T06:48:17.134Z,98069.61
2019-02-19T06:50:49.241Z,98069.19
2019-02-19T06:53:21.318Z,98070.82
2019-02-19T06:55:53.395Z,98068.66
2019-02-19T06:58:25.378Z,98075.52
2019-02-19T07:00:57.320Z,98076.47
2019-02-19T07:03:36.768Z,98076.66
2019-02-19T07:06:08.650Z,98078.53
2019-02-19T07:08:40.563Z,98086.72
2019-02-19T07:11:12.484Z,98079.74
2019-02-19T07:13:44.392Z,98081.63
2019-02-19T07:16:16.316Z,98083.13
2019-02-19T07:18:48.237Z,98084.04
2019-02-19T07:21:20.145Z,98084.94
2019-02-19T07:23:52.068Z,98088.52
2019-02-19T07:26:24.001Z,98080.83
2019-02-19T07:28:55.920Z,98078.44
2019-02-19T07:31:27.848Z,98072.80
2019-02-19T07:33:59.755Z,98056.78
2019-02-19T07:36:31.802Z,98046.86
2019-02-19T07:39:03.891Z,98035.91
2019-02-19T07:41:35.884Z,98028.28
2019-02-19T07:44:07.879Z,98021.89
2019-02-19T07:46:39.882Z,98025.48
2019-02-19T07:49:11.877Z,98022.10
2019-02-19T07:51:43.880Z,98028.73
2019-02-19T07:54:15.871Z,98027.13
2019-02-19T07:56:47.862Z,98033.51
2019-02-19T07:59:19.856Z,98032.39
2019-02-19T08:01:51.994Z,98027.19
2019-02-19T08:04:24.072Z,98018.69
2019-02-19T08:06:56.072Z,98017.00
2019-02-19T08:09:28.183Z,98014.99
2019-02-19T08:12:00.259Z,98018.39
2019-02-19T08:14:32.421Z,98015.31
2019-02-19T08:17:04.495Z,98023.17
2019-02-19T08:19:36.588Z,98035.88
2019-02-19T08:22:08.705Z,98047.55
2019-02-19T08:24:40.791Z,98058.06
2019-02-19T08:27:12.792Z,98066.84
2019-02-19T08:29:44.864Z,98073.61
2019-02-19T08:32:16.807Z,98075.31
2019-02-19T08:34:48.738Z,98074.61
2019-02-19T08:37:20.652Z,98072.95
2019-02-19T08:39:52.702Z,98062.30
2019-02-19T08:42:24.807Z,98066.55
2019-02-19T08:44:56.875Z,98060.38
2019-02-19T08:47:28.871Z,98056.27
2019-02-19T08:50:00.887Z,98056.03
2019-02-19T08:52:32.773Z,98058.27
2019-02-19T08:55:04.784Z,98060.78
2019-02-19T08:57:36.823Z,98048.16
2019-02-19T09:00:10.146Z,98035.88
2019-02-19T09:02:42.231Z,98037.36
2019-02-19T09:05:14.311Z,98034.64
2019-02-19T09:07:46.333Z,98038.62
2019-02-19T09:10:18.395Z,98037.48
2019-02-19T09:12:50.485Z,98025.14
2019-02-19T09:15:22.550Z,98030.65
2019-02-19T09:17:54.558Z,98046.33
2019-02-19T09:20:26.559Z,98052.30
2019-02-19T09:22:58.631Z,98061.33
2019-02-19T09:25:30.624Z,98055.69
2019-02-19T09:28:02.700Z,98059.67
2019-02-19T09:30:34.697Z,98056.45
2019-02-19T09:33:06.705Z,98054.23
2019-02-19T09:35:38.698Z,98055.63
2019-02-19T09:38:10.696Z,98056.46
2019-02-19T09:40:42.700Z,98058.00
2019-02-19T09:43:14.710Z,98060.75
2019-02-19T09:45:46.715Z,98058.53
2019-02-19T09:48:18.785Z,98053.42
2019-02-19T09:50:50.895Z,98059.38
2019-02-19T09:53:22.788Z,98062.69
2019-02-19T09:55:54.713Z,98068.90
2019-02-19T09:58:26.727Z,98067.95
2019-02-19T10:00:58.698Z,98072.95
2019-02-19T10:03:30.615Z,98078.88
2019-02-19T10:06:02.528Z,98074.78
2019-02-19T10:08:34.445Z,98074.50
2019-02-19T10:11:06.595Z,98075.79
2019-02-19T10:13:38.599Z,98080.50
2019-02-19T10:16:10.603Z,98080.80
2019-02-19T10:18:42.485Z,98083.97
2019-02-19T10:21:14.527Z,98085.91
2019-02-19T10:23:46.402Z,98095.39
2019-02-19T10:26:18.315Z,98098.48
2019-02-19T10:28:50.220Z,98102.23
2019-02-19T10:31:22.134Z,98104.81
2019-02-19T10:33:54.047Z,98104.87
2019-02-19T10:36:25.959Z,98110.69
2019-02-19T10:38:57.962Z,98111.55
2019-02-19T10:41:29.969Z,98108.48
2019-02-19T10:44:01.876Z,98110.68
2019-02-19T10:46:33.790Z,98109.03
2019-02-19T10:49:05.688Z,98103.80
2019-02-19T10:51:37.621Z,98109.23
2019-02-19T10:54:09.545Z,98116.84
2019-02-19T10:56:41.463Z,98109.06
2019-02-19T10:59:13.367Z,98110.20
2019-02-19T11:01:45.323Z,98102.65
2019-02-19T11:04:17.230Z,98101.74
2019-02-19T11:06:49.134Z,98095.45
2019-02-19T11:09:21.057Z,98091.64
2019-02-19T11:11:52.990Z,98089.29
2019-02-19T11:14:24.907Z,98089.68
2019-02-19T11:16:56.830Z,98087.56
2019-02-19T11:19:28.752Z,98095.85
2019-02-19T11:22:00.655Z,98094.32
2019-02-19T11:24:32.593Z,98092.48
2019-02-19T11:27:04.792Z,98086.17
2019-02-19T11:29:36.707Z,98087.03
2019-02-19T11:32:08.618Z,98091.05
2019-02-19T11:34:40.540Z,98089.87
2019-02-19T11:37:12.460Z,98082.61
2019-02-19T11:39:44.357Z,98083.77
2019-02-19T11:42:16.262Z,98081.63
2019-02-19T11:44:48.180Z,98081.03
2019-02-19T11:47:26.449Z,98076.88
2019-02-19T11:49:53.712Z,98076.44
2019-02-19T11:52:25.643Z,98079.93
2019-02-19T11:54:57.567Z,98084.52
2019-02-19T11:57:29.483Z,98077.10
2019-02-19T12:00:01.408Z,98083.95
2019-02-19T12:02:33.355Z,98081.36
2019-02-19T12:05:06.925Z,98077.98
2019-02-19T12:07:38.939Z,98077.83
2019-02-19T12:10:12.040Z,98074.09
2019-02-19T12:12:44.064Z,98080.51
2019-02-19T12:15:15.982Z,98078.94
2019-02-19T12:17:47.896Z,98064.59
2019-02-19T12:20:19.798Z,98061.39
2019-02-19T12:22:51.707Z,98056.36
2019-02-19T12:25:23.630Z,98048.70
2019-02-19T12:27:55.543Z,98046.32
2019-02-19T12:30:27.453Z,98055.40
2019-02-19T12:32:59.364Z,98057.06
2019-02-19T12:35:31.357Z,98057.63
2019-02-19T12:38:03.275Z,98054.84
2019-02-19T12:40:35.197Z,98048.08
2019-02-19T12:43:07.120Z,98049.15
2019-02-19T12:45:39.026Z,98045.66
2019-02-19T12:48:10.997Z,98039.73
2019-02-19T12:50:42.951Z,98037.33
2019-02-19T12:53:14.869Z,98036.29
2019-02-19T12:55:47.007Z,98041.55
2019-02-19T12:58:19.084Z,98048.06
2019-02-19T13:00:51.349Z,98052.10
2019-02-19T13:03:23.301Z,98047.36
2019-02-19T13:05:55.224Z,98052.41
2019-02-19T13:08:27.132Z,98052.84
2019-02-19T13:10:59.092Z,98045.94
2019-02-19T13:13:31.019Z,98047.91
2019-02-19T13:16:02.951Z,98057.85
2019-02-19T13:18:34.863Z,98053.73
2019-02-19T13:21:06.785Z,98048.14
2019-02-19T13:23:38.690Z,98062.11
2019-02-19T13:26:10.612Z,98059.97
2019-02-19T13:28:42.523Z,98067.03
2019-02-19T13:31:14.432Z,98065.25
2019-02-19T13:33:46.371Z,98064.45
2019-02-19T13:36:18.286Z,98064.45
2019-02-19T13:38:50.317Z,98068.53
2019-02-19T13:41:22.259Z,98066.17
2019-02-19T13:43:54.172Z,98070.19
2019-02-19T13:46:26.086Z,98071.11
2019-02-19T13:48:58.001Z,98070.30
2019-02-19T13:51:29.896Z,98069.02
2019-02-19T13:54:05.643Z,98069.03
2019-02-19T13:56:37.557Z,98075.95
2019-02-19T13:59:09.479Z,98080.02
2019-02-19T14:01:41.431Z,98078.22
2019-02-19T14:04:13.339Z,98081.03
2019-02-19T14:06:45.248Z,98080.50
2019-02-19T14:09:17.159Z,98079.11
2019-02-19T14:11:49.061Z,98080.34
2019-02-19T14:14:44.114Z,98082.52
2019-02-19T14:17:18.395Z,98084.66
2019-02-19T14:19:55.027Z,98091.24
2019-02-19T14:22:44.319Z,98091.52
2019-02-19T14:25:33.475Z,98095.20
2019-02-19T14:28:22.694Z,98092.98
2019-02-19T14:31:16.469Z,98101.73
2019-02-19T14:34:07.318Z,98100.05
2019-02-19T14:37:00.841Z,98108.73
2019-02-19T14:39:50.431Z,98093.08
2019-02-19T14:42:41.546Z,98097.52
2019-02-19T14:45:32.454Z,98105.06
2019-02-19T14:48:23.176Z,98104.37
2019-02-19T14:51:12.654Z,98102.08
2019-02-19T14:54:03.365Z,98108.71
2019-02-19T14:56:47.792Z,98106.53
2019-02-19T14:59:37.044Z,98110.58
2019-02-19T15:02:27.830Z,98112.06
2019-02-19T15:05:27.692Z,98114.57
2019-02-19T15:08:21.199Z,98111.37
2019-02-19T15:11:10.494Z,98119.55
2019-02-19T15:14:04.004Z,98118.22
2019-02-19T15:16:53.047Z,98118.39
2019-02-19T15:19:40.099Z,98120.73
2019-02-19T15:22:33.828Z,98117.00
2019-02-19T15:25:25.014Z,98124.28
2019-02-19T15:28:24.880Z,98117.84
2019-02-19T15:31:15.630Z,98118.50
2019-02-19T15:34:09.364Z,98121.52
2019-02-19T15:37:15.289Z,98119.59
2019-02-19T15:40:04.804Z,98113.14
2019-02-19T15:42:55.542Z,98109.98
2019-02-19T15:45:49.320Z,98105.42
2019-02-19T15:48:46.114Z,98101.95
2019-02-19T15:51:42.844Z,98109.31
2019-02-19T15:54:31.962Z,98111.34
2019-02-19T15:57:31.843Z,98110.19
2019-02-19T16:00:37.503Z,98114.44
2019-02-19T16:03:31.968Z,98115.39
2019-02-19T16:06:22.715Z,98119.89
2019-02-19T16:09:09.171Z,98116.30
2019-02-19T16:12:05.777Z,98117.38
2019-02-19T16:15:11.356Z,98120.14
2019-02-19T16:18:01.320Z,98126.71
2019-02-19T16:20:43.023Z,98129.25
2019-02-19T16:23:33.459Z,98127.52
2019-02-19T16:26:21.746Z,98128.78
2019-02-19T16:29:07.963Z,98130.56
2019-02-19T16:31:49.382Z,98133.97
2019-02-19T16:34:40.118Z,98127.67
2019-02-19T16:37:33.797Z,98129.86
2019-02-19T16:40:27.922Z,98133.30
2019-02-19T16:43:24.468Z,98137.51
2019-02-19T16:46:09.929Z,98137.86
2019-02-19T16:49:09.896Z,98145.02
2019-02-19T16:51:55.390Z,98147.88
2019-02-19T16:54:48.952Z,98146.22
2019-02-19T16:57:32.528Z,98148.28
2019-02-19T17:00:26.300Z,98150.13
2019-02-19T17:03:25.928Z,98152.70
2019-02-19T17:06:15.050Z,98146.31
2019-02-19T17:09:05.802Z,98149.86
2019-02-19T17:11:48.884Z,98162.66
2019-02-19T17:14:33.196Z,98173.20
2019-02-19T17:17:26.564Z,98170.77
2019-02-19T17:20:29.188Z,98166.62
2019-02-19T17:23:18.939Z,98161.57
2019-02-19T17:26:09.793Z,98168.63
2019-02-19T17:29:15.512Z,98178.55
2019-02-19T17:32:06.345Z,98184.07
2019-02-19T17:34:57.087Z,98189.96
2019-02-19T17:37:46.260Z,98198.06
2019-02-19T17:40:23.856Z,98198.20
2019-02-19T17:43:26.653Z,98194.38
2019-02-19T17:46:04.484Z,98199.31
2019-02-19T17:48:41.951Z,98198.22
2019-02-19T17:51:41.499Z,98192.26
2019-02-19T17:54:30.091Z,98200.56
2019-02-19T17:57:18.011Z,98204.25
2019-02-19T18:00:12.648Z,98197.23
2019-02-19T18:03:02.023Z,98203.78
2019-02-19T18:05:58.675Z,98204.09
2019-02-19T18:08:55.396Z,98210.14
2019-02-19T18:12:04.078Z,98212.63
2019-02-19T18:15:06.848Z,98217.91
2019-02-19T18:17:55.821Z,98220.94
2019-02-19T18:20:27.859Z,98223.72
2019-02-19T18:22:59.872Z,98222.67
2019-02-19T18:25:31.867Z,98227.78
2019-02-19T18:28:03.877Z,98230.73
2019-02-19T18:30:35.881Z,98235.69
2019-02-19T18:33:07.964Z,98223.86
2019-02-19T18:35:40.041Z,98227.34
2019-02-19T18:38:12.119Z,98226.53
2019-02-19T18:40:44.122Z,98230.65
2019-02-19T18:43:16.223Z,98226.11
2019-02-19T18:45:48.287Z,98225.64
2019-02-19T18:48:20.284Z,98226.82
2019-02-19T18:50:58.089Z,98224.91
2019-02-19T18:53:27.067Z,98225.61
2019-02-19T18:55:59.088Z,98232.16
2019-02-19T18:58:31.005Z,98228.22
2019-02-19T19:01:03.095Z,98225.13
2019-02-19T19:03:35.182Z,98228.17
2019-02-19T19:06:07.271Z,98225.65
2019-02-19T19:08:39.350Z,98228.09
2019-02-19T19:11:11.352Z,98234.52
2019-02-19T19:13:43.355Z,98234.46
2019-02-19T19:16:15.448Z,98240.52
2019-02-19T19:18:47.674Z,98239.43
2019-02-19T19:21:19.684Z,98239.18
2019-02-19T19:23:52.444Z,98247.72
2019-02-19T19:26:24.513Z,98247.20
2019-02-19T19:28:56.605Z,98256.20
2019-02-19T19:31:33.676Z,98257.16
2019-02-19T19:34:02.274Z,98262.07
2019-02-19T19:36:34.308Z,98272.97
2019-02-19T19:39:08.415Z,98273.88
2019-02-19T19:41:40.446Z,98272.41
2019-02-19T19:44:12.448Z,98276.84
2019-02-19T19:46:44.526Z,98270.69
2019-02-19T19:49:16.550Z,98268.70
2019-02-19T19:51:48.545Z,98269.22
2019-02-19T19:54:20.566Z,98275.55
2019-02-19T19:56:52.644Z,98276.44
2019-02-19T19:59:24.680Z,98280.21
2019-02-19T20:01:56.679Z,98276.48
2019-02-19T20:04:28.690Z,98285.13
2019-02-19T20:07:00.773Z,98283.16
2019-02-19T20:09:32.785Z,98287.82
2019-02-19T20:12:04.888Z,98291.67
2019-02-19T20:14:37.023Z,98290.50
2019-02-19T20:17:09.044Z,98288.78
2019-02-19T20:19:41.048Z,98293.78
2019-02-19T20:22:13.069Z,98294.02
2019-02-19T20:24:45.135Z,98301.02
2019-02-19T20:27:17.131Z,98301.52
2019-02-19T20:29:49.142Z,98309.90
2019-02-19T20:32:21.222Z,98309.84
2019-02-19T20:34:53.214Z,98309.40
2019-02-19T20:37:25.230Z,98311.27
2019-02-19T20:39:57.241Z,98313.85
2019-02-19T20:42:29.312Z,98311.94
2019-02-19T20:45:01.381Z,98315.13
2019-02-19T20:47:34.331Z,98314.33
2019-02-19T20:50:06.915Z,98315.87
2019-02-19T20:52:38.908Z,98317.09
2019-02-19T20:55:11.315Z,98320.08
2019-02-19T20:57:43.317Z,98315.32
2019-02-19T21:00:17.076Z,98313.01
2019-02-19T21:02:49.151Z,98310.45
2019-02-19T21:05:21.226Z,98312.07
2019-02-19T21:07:53.306Z,98309.97
2019-02-19T21:10:25.299Z,98309.87
2019-02-19T21:12:57.291Z,98314.33
2019-02-19T21:15:29.280Z,98316.61
2019-02-19T21:18:01.287Z,98322.72
2019-02-19T21:20:33.356Z,98316.96
2019-02-19T21:23:05.347Z,98321.00
2019-02-19T21:25:37.358Z,98323.78
2019-02-19T21:28:09.353Z,98329.15
2019-02-19T21:30:41.363Z,98329.05
2019-02-19T21:33:13.454Z,98329.21
2019-02-19T21:35:45.454Z,98330.81
2019-02-19T21:38:17.458Z,98331.05
2019-02-19T21:40:49.509Z,98331.91
2019-02-19T21:43:21.527Z,98333.84
2019-02-19T21:45:53.544Z,98334.47
2019-02-19T21:48:25.529Z,98335.34
2019-02-19T21:50:57.645Z,98335.84
2019-02-19T21:53:29.716Z,98336.97
2019-02-19T21:56:01.730Z,98336.27
2019-02-19T21:58:33.911Z,98337.95
2019-02-19T22:01:06.084Z,98341.63
2019-02-19T22:03:38.104Z,98343.50
2019-02-19T22:06:10.122Z,98341.95
2019-02-19T22:08:42.113Z,98349.84
2019-02-19T22:11:14.119Z,98346.84
2019-02-19T22:13:46.214Z,98345.72
2019-02-19T22:16:18.213Z,98346.06
2019-02-19T22:18:50.213Z,98345.23
2019-02-19T22:21:53.127Z,98342.84
2019-02-19T22:24:38.223Z,98348.47
2019-02-19T22:27:10.657Z,98342.23
2019-02-19T22:29:42.654Z,98347.84
2019-02-19T22:32:17.035Z,98345.63
2019-02-19T22:34:49.097Z,98343.39
2019-02-19T22:37:21.160Z,98341.44
2019-02-19T22:39:53.228Z,98348.45
2019-02-19T22:42:25.554Z,98346.22
2019-02-19T22:44:57.547Z,98343.72
2019-02-19T22:47:29.957Z,98340.58
2019-02-19T22:50:02.078Z,98346.77
2019-02-19T22:52:36.870Z,98345.23
2019-02-19T22:55:20.692Z,98346.13
2019-02-19T22:57:53.129Z,98347.92
2019-02-19T23:00:49.298Z,98353.31
2019-02-19T23:03:24.532Z,98357.86
2019-02-19T23:05:56.605Z,98355.98
2019-02-19T23:08:28.678Z,98362.73
2019-02-19T23:11:00.813Z,98364.66
2019-02-19T23:13:32.987Z,98374.70
2019-02-19T23:16:05.089Z,98365.19
2019-02-19T23:18:37.171Z,98366.56
2019-02-19T23:21:09.179Z,98367.15
2019-02-19T23:23:41.172Z,98365.26
2019-02-19T23:26:13.179Z,98365.50
2019-02-19T23:28:45.270Z,98367.50
2019-02-19T23:31:17.360Z,98368.39
2019-02-19T23:33:49.416Z,98370.66
2019-02-19T23:36:29.273Z,98370.57
2019-02-19T23:39:01.461Z,98373.98
2019-02-19T23:41:33.457Z,98370.03
2019-02-19T23:44:05.572Z,98371.37
2019-02-19T23:46:37.635Z,98375.97
2019-02-19T23:49:09.711Z,98376.09
2019-02-19T23:51:41.715Z,98378.55
2019-02-19T23:54:13.713Z,98378.86
2019-02-19T23:56:45.727Z,98383.94
2019-02-19T23:59:17.731Z,98384.25
